createdAt,value
2023-04-22T00:02:02.433Z,8.60
2023-04-22T00:04:34.732Z,8.70
2023-04-22T00:07:06.604Z,8.50
2023-04-22T00:09:38.823Z,8.40
2023-04-22T00:12:13.684Z,8.40
2023-04-22T00:14:45.401Z,8.40
2023-04-22T00:17:17.422Z,8.40
2023-04-22T00:19:49.113Z,8.40
2023-04-22T00:22:20.787Z,8.40
2023-04-22T00:24:52.459Z,8.50
2023-04-22T00:27:24.213Z,8.50
2023-04-22T00:29:56.272Z,8.60
2023-04-22T00:32:28.026Z,8.60
2023-04-22T00:34:59.725Z,8.70
2023-04-22T00:37:31.440Z,8.70
2023-04-22T00:40:03.440Z,8.70
2023-04-22T00:42:36.794Z,8.60
2023-04-22T00:45:11.881Z,8.60
2023-04-22T00:47:45.823Z,8.60
2023-04-22T00:50:17.902Z,8.60
2023-04-22T00:52:49.703Z,8.50
2023-04-22T00:55:21.969Z,8.50
2023-04-22T00:57:55.358Z,8.50
2023-04-22T01:00:28.200Z,8.30
2023-04-22T01:03:00.898Z,8.30
2023-04-22T01:05:33.346Z,8.20
2023-04-22T01:08:05.792Z,8.10
2023-04-22T01:10:37.731Z,8.10
2023-04-22T01:13:10.358Z,8.10
2023-04-22T01:15:42.143Z,8.00
2023-04-22T01:18:14.995Z,8.00
2023-04-22T01:20:46.818Z,8.00
2023-04-22T01:23:22.553Z,8.00
2023-04-22T01:25:54.630Z,8.00
2023-04-22T01:28:26.728Z,8.00
2023-04-22T01:30:59.803Z,8.00
2023-04-22T01:33:31.790Z,8.00
2023-04-22T01:36:03.658Z,8.00
2023-04-22T01:38:35.540Z,8.00
2023-04-22T01:41:09.432Z,8.00
2023-04-22T01:43:42.621Z,7.90
2023-04-22T01:46:16.462Z,7.90
2023-04-22T01:48:51.397Z,7.90
2023-04-22T01:51:26.400Z,7.90
2023-04-22T01:53:58.240Z,7.90
2023-04-22T01:56:30.056Z,7.90
2023-04-22T01:59:02.008Z,7.80
2023-04-22T02:01:37.542Z,7.70
2023-04-22T02:04:11.661Z,7.70
2023-04-22T02:06:43.474Z,7.60
2023-04-22T02:09:15.578Z,7.70
2023-04-22T02:11:47.294Z,7.60
2023-04-22T02:14:19.180Z,7.50
2023-04-22T02:16:51.750Z,7.40
2023-04-22T02:19:23.570Z,7.40
2023-04-22T02:21:55.742Z,7.40
2023-04-22T02:24:27.646Z,7.40
2023-04-22T02:26:59.424Z,7.40
2023-04-22T02:29:32.296Z,7.40
2023-04-22T02:32:04.006Z,7.50
2023-04-22T02:34:36.562Z,7.40
2023-04-22T02:37:08.476Z,7.40
2023-04-22T02:39:40.573Z,7.40
2023-04-22T02:42:12.605Z,7.30
2023-04-22T02:44:44.330Z,7.20
2023-04-22T02:47:16.663Z,7.20
2023-04-22T02:49:48.377Z,7.20
2023-04-22T02:52:20.675Z,7.10
2023-04-22T02:54:52.386Z,7.10
2023-04-22T02:57:24.079Z,7.00
2023-04-22T02:59:57.064Z,7.00
2023-04-22T03:02:29.552Z,7.00
2023-04-22T03:05:10.198Z,7.00
2023-04-22T03:07:42.079Z,7.10
2023-04-22T03:10:13.881Z,7.10
2023-04-22T03:12:45.629Z,7.10
2023-04-22T03:15:21.098Z,7.20
2023-04-22T03:17:53.333Z,7.20
2023-04-22T03:20:26.024Z,7.20
2023-04-22T03:22:58.900Z,7.20
2023-04-22T03:25:32.050Z,7.20
2023-04-22T03:28:04.320Z,7.20
2023-04-22T03:30:36.092Z,7.10
2023-04-22T03:33:08.143Z,7.10
2023-04-22T03:35:56.276Z,7.10
2023-04-22T03:38:28.924Z,7.10
2023-04-22T03:41:00.985Z,7.10
2023-04-22T03:43:50.536Z,7.10
2023-04-22T03:46:22.836Z,7.00
2023-04-22T03:49:08.349Z,7.00
2023-04-22T03:51:40.588Z,7.00
2023-04-22T03:54:16.837Z,5.00
2023-04-22T03:56:53.230Z,7.00
2023-04-22T03:59:27.324Z,6.90
2023-04-22T04:01:59.793Z,6.90
2023-04-22T04:04:32.594Z,6.80
2023-04-22T04:07:07.535Z,6.80
2023-04-22T04:09:39.471Z,6.80
2023-04-22T04:12:11.439Z,6.80
2023-04-22T04:14:47.933Z,6.80
2023-04-22T04:17:25.934Z,6.80
2023-04-22T04:19:58.381Z,6.80
2023-04-22T04:22:30.851Z,6.80
2023-04-22T04:25:06.858Z,6.80
2023-04-22T04:27:42.621Z,6.90
2023-04-22T04:30:17.770Z,6.90
2023-04-22T04:32:54.140Z,7.00
2023-04-22T04:35:26.404Z,7.00
2023-04-22T04:38:01.597Z,7.10
2023-04-22T04:40:34.859Z,7.20
2023-04-22T04:43:27.037Z,7.20
2023-04-22T04:46:05.738Z,7.30
2023-04-22T04:48:42.338Z,7.40
2023-04-22T04:51:14.987Z,7.60
2023-04-22T04:53:55.775Z,7.70
2023-04-22T04:56:28.663Z,8.20
2023-04-22T04:59:00.505Z,8.60
2023-04-22T05:01:33.240Z,8.90
2023-04-22T05:04:11.483Z,8.90
2023-04-22T05:06:46.093Z,9.00
2023-04-22T05:09:19.050Z,9.30
2023-04-22T05:11:53.206Z,9.90
2023-04-22T05:14:26.425Z,10.40
2023-04-22T05:16:58.457Z,10.70
2023-04-22T05:19:30.380Z,10.80
2023-04-22T05:22:02.375Z,11.00
2023-04-22T05:24:34.720Z,11.20
2023-04-22T05:27:07.086Z,11.30
2023-04-22T05:29:39.638Z,11.30
2023-04-22T05:32:12.341Z,11.30
2023-04-22T05:34:44.395Z,11.10
2023-04-22T05:37:16.921Z,11.30
2023-04-22T05:39:49.212Z,11.90
2023-04-22T05:42:21.039Z,12.30
2023-04-22T05:44:54.017Z,12.70
2023-04-22T05:47:25.857Z,13.00
2023-04-22T05:49:58.119Z,13.20
2023-04-22T05:52:39.093Z,13.30
2023-04-22T05:55:16.918Z,13.40
2023-04-22T05:57:51.380Z,13.30
2023-04-22T06:00:37.033Z,13.30
2023-04-22T06:03:23.262Z,13.00
2023-04-22T06:05:55.560Z,12.90
2023-04-22T06:08:27.583Z,12.90
2023-04-22T06:10:59.339Z,13.00
2023-04-22T06:13:33.950Z,13.10
2023-04-22T06:18:38.783Z,13.20
2023-04-22T06:21:15.589Z,13.20
2023-04-22T06:23:47.369Z,13.30
2023-04-22T06:26:19.822Z,13.40
2023-04-22T06:28:51.613Z,13.40
2023-04-22T06:31:25.218Z,13.20
2023-04-22T06:33:57.003Z,13.30
2023-04-22T06:36:30.577Z,13.70
2023-04-22T06:39:06.457Z,14.00
2023-04-22T06:42:07.711Z,14.20
2023-04-22T06:45:09.437Z,14.60
2023-04-22T06:47:59.720Z,14.80
2023-04-22T06:50:42.374Z,14.80
2023-04-22T06:53:14.165Z,14.90
2023-04-22T06:55:46.208Z,15.00
2023-04-22T06:58:17.966Z,15.00
2023-04-22T07:00:49.952Z,14.90
2023-04-22T07:03:21.803Z,14.90
2023-04-22T07:06:05.396Z,15.00
2023-04-22T07:08:38.586Z,15.10
2023-04-22T07:11:12.531Z,15.20
2023-04-22T07:14:08.293Z,15.30
2023-04-22T07:16:40.096Z,15.30
2023-04-22T07:19:11.825Z,15.40
2023-04-22T07:21:43.630Z,15.50
2023-04-22T07:24:15.881Z,15.80
2023-04-22T07:26:47.696Z,15.90
2023-04-22T07:29:19.553Z,16.00
2023-04-22T07:31:51.268Z,16.00
2023-04-22T07:34:23.185Z,16.10
2023-04-22T07:36:54.972Z,16.10
2023-04-22T07:39:26.731Z,16.10
2023-04-22T07:41:58.680Z,16.20
2023-04-22T07:44:31.171Z,16.30
2023-04-22T07:47:02.953Z,16.20
2023-04-22T07:49:34.752Z,16.40
2023-04-22T07:52:06.579Z,16.50
2023-04-22T07:54:38.269Z,16.60
2023-04-22T07:57:10.000Z,16.70
2023-04-22T07:59:41.901Z,16.70
2023-04-22T08:02:13.841Z,16.70
2023-04-22T08:04:45.894Z,16.70
2023-04-22T08:07:32.529Z,16.70
2023-04-22T08:10:05.710Z,16.80
2023-04-22T08:12:37.720Z,17.00
2023-04-22T08:15:09.935Z,17.10
2023-04-22T08:17:41.727Z,17.20
2023-04-22T08:20:15.490Z,17.50
2023-04-22T08:22:47.419Z,17.50
2023-04-22T08:25:19.228Z,17.40
2023-04-22T08:27:51.742Z,17.40
2023-04-22T08:30:23.667Z,17.30
2023-04-22T08:32:55.490Z,17.30
2023-04-22T08:35:27.295Z,17.30
2023-04-22T08:37:58.995Z,17.30
2023-04-22T08:40:30.776Z,17.50
2023-04-22T08:43:03.075Z,17.60
2023-04-22T08:45:35.385Z,17.70
2023-04-22T08:48:11.842Z,17.50
2023-04-22T08:50:44.277Z,17.50
2023-04-22T08:53:16.136Z,17.50
2023-04-22T08:55:49.608Z,17.50
2023-04-22T08:58:22.716Z,17.60
2023-04-22T09:00:55.911Z,17.70
2023-04-22T09:03:27.907Z,17.70
2023-04-22T09:06:01.206Z,17.80
2023-04-22T09:08:33.246Z,18.10
2023-04-22T09:11:05.157Z,18.20
2023-04-22T09:13:37.794Z,18.40
2023-04-22T09:16:10.137Z,18.60
2023-04-22T09:18:43.060Z,18.80
2023-04-22T09:21:15.065Z,18.90
2023-04-22T09:23:52.238Z,19.00
2023-04-22T09:26:26.110Z,19.10
2023-04-22T09:29:00.138Z,19.00
2023-04-22T09:31:32.897Z,19.10
2023-04-22T09:34:05.167Z,19.00
2023-04-22T09:36:40.704Z,19.00
2023-04-22T09:39:12.523Z,19.10
2023-04-22T09:41:44.368Z,18.90
2023-04-22T09:44:18.060Z,18.90
2023-04-22T09:46:50.561Z,19.10
2023-04-22T09:49:22.343Z,19.00
2023-04-22T09:52:00.636Z,18.90
2023-04-22T09:54:32.461Z,19.00
2023-04-22T09:57:05.391Z,19.00
2023-04-22T09:59:38.446Z,19.10
2023-04-22T10:02:10.930Z,19.10
2023-04-22T10:04:42.860Z,19.20
2023-04-22T10:07:15.218Z,19.20
2023-04-22T10:09:47.541Z,19.20
2023-04-22T10:12:26.098Z,19.30
2023-04-22T10:15:01.317Z,19.40
2023-04-22T10:17:36.306Z,19.30
2023-04-22T10:20:15.101Z,19.30
2023-04-22T10:22:47.522Z,19.30
2023-04-22T10:25:27.087Z,19.20
2023-04-22T10:28:04.946Z,19.20
2023-04-22T10:30:38.948Z,19.30
2023-04-22T10:33:28.782Z,19.30
2023-04-22T10:36:15.472Z,19.50
2023-04-22T10:38:50.240Z,19.50
2023-04-22T10:41:33.557Z,19.70
2023-04-22T10:44:08.902Z,19.80
2023-04-22T10:46:42.393Z,19.80
2023-04-22T10:49:22.018Z,19.80
2023-04-22T10:51:55.590Z,19.20
2023-04-22T10:54:31.019Z,20.00
2023-04-22T10:57:15.432Z,20.00
2023-04-22T10:59:51.579Z,19.90
2023-04-22T11:02:23.981Z,20.00
2023-04-22T11:05:18.716Z,20.20
2023-04-22T11:08:01.299Z,20.20
2023-04-22T11:10:43.778Z,20.20
2023-04-22T11:13:21.329Z,20.20
2023-04-22T11:15:55.703Z,20.40
2023-04-22T11:18:27.606Z,20.50
2023-04-22T11:21:06.329Z,20.60
2023-04-22T11:23:38.129Z,20.60
2023-04-22T11:26:09.832Z,20.70
2023-04-22T11:28:48.071Z,20.80
2023-04-22T11:31:20.003Z,20.80
2023-04-22T11:33:51.847Z,20.80
2023-04-22T11:36:23.981Z,20.70
2023-04-22T11:38:56.478Z,20.80
2023-04-22T11:41:29.962Z,20.90
2023-04-22T11:44:02.284Z,20.90
2023-04-22T11:46:39.528Z,20.90
2023-04-22T11:49:15.154Z,21.10
2023-04-22T11:51:56.849Z,20.90
2023-04-22T11:54:36.383Z,21.00
2023-04-22T11:57:09.396Z,21.10
2023-04-22T11:59:42.381Z,21.00
2023-04-22T12:02:17.238Z,21.10
2023-04-22T12:04:49.044Z,21.20
2023-04-22T12:07:20.906Z,21.40
2023-04-22T12:09:56.344Z,21.60
2023-04-22T12:12:28.280Z,21.60
2023-04-22T12:15:08.498Z,21.70
2023-04-22T12:17:40.831Z,21.50
2023-04-22T12:20:13.330Z,21.40
2023-04-22T12:22:45.342Z,21.50
2023-04-22T12:25:20.567Z,21.50
2023-04-22T12:27:52.287Z,21.60
2023-04-22T12:30:24.901Z,21.60
2023-04-22T12:32:57.324Z,21.60
2023-04-22T12:35:29.129Z,21.70
2023-04-22T12:38:02.359Z,21.60
2023-04-22T12:40:34.080Z,21.70
2023-04-22T12:43:06.197Z,21.80
2023-04-22T12:45:38.177Z,21.60
2023-04-22T12:48:10.086Z,21.50
2023-04-22T12:50:42.060Z,21.50
2023-04-22T12:53:14.816Z,21.50
2023-04-22T12:55:46.985Z,21.50
2023-04-22T12:58:18.716Z,21.50
2023-04-22T13:00:50.512Z,21.30
2023-04-22T13:03:22.362Z,21.10
2023-04-22T13:05:55.040Z,20.90
2023-04-22T13:08:27.738Z,21.00
2023-04-22T13:11:00.268Z,20.90
2023-04-22T13:13:32.266Z,21.00
2023-04-22T13:16:04.305Z,21.10
2023-04-22T13:18:36.220Z,21.30
2023-04-22T13:21:08.291Z,21.40
2023-04-22T13:23:40.088Z,21.60
2023-04-22T13:26:12.292Z,21.50
2023-04-22T13:28:44.027Z,21.50
2023-04-22T13:31:16.252Z,21.60
2023-04-22T13:33:48.074Z,21.80
2023-04-22T13:36:19.795Z,21.80
2023-04-22T13:38:51.598Z,21.80
2023-04-22T13:41:23.297Z,21.80
2023-04-22T13:43:59.578Z,21.80
2023-04-22T13:46:31.437Z,21.80
2023-04-22T13:49:03.253Z,21.80
2023-04-22T13:51:37.222Z,21.90
2023-04-22T13:54:08.964Z,21.90
2023-04-22T13:56:41.300Z,21.90
2023-04-22T13:59:13.155Z,22.10
2023-04-22T14:01:44.872Z,22.30
2023-04-22T14:04:16.629Z,22.40
2023-04-22T14:06:48.402Z,22.50
2023-04-22T14:09:20.183Z,22.50
2023-04-22T14:11:51.935Z,22.50
2023-04-22T14:14:23.760Z,22.60
2023-04-22T14:16:55.974Z,22.70
2023-04-22T14:19:28.970Z,22.70
2023-04-22T14:22:00.729Z,22.60
2023-04-22T14:24:32.909Z,22.70
2023-04-22T14:27:05.152Z,22.80
2023-04-22T14:29:36.882Z,22.70
2023-04-22T14:32:08.581Z,22.70
2023-04-22T14:34:40.400Z,22.70
2023-04-22T14:37:12.648Z,22.70
2023-04-22T14:39:44.373Z,22.70
2023-04-22T14:42:18.108Z,22.60
2023-04-22T14:44:49.885Z,22.70
2023-04-22T14:47:21.604Z,22.70
2023-04-22T14:49:53.340Z,22.80
2023-04-22T14:52:25.260Z,22.90
2023-04-22T14:54:57.236Z,23.00
2023-04-22T14:57:29.501Z,22.80
2023-04-22T15:00:01.422Z,22.70
2023-04-22T15:02:33.422Z,22.70
2023-04-22T15:05:05.710Z,22.60
2023-04-22T15:07:37.443Z,22.50
2023-04-22T15:10:09.501Z,22.40
2023-04-22T15:12:41.230Z,22.20
2023-04-22T15:15:15.726Z,22.10
2023-04-22T15:17:47.697Z,21.90
2023-04-22T15:20:19.447Z,21.90
2023-04-22T15:22:51.985Z,21.90
2023-04-22T15:25:24.777Z,22.00
2023-04-22T15:27:56.991Z,21.70
2023-04-22T15:30:28.729Z,21.60
2023-04-22T15:33:00.522Z,21.50
2023-04-22T15:35:32.389Z,21.50
2023-04-22T15:38:05.660Z,21.60
2023-04-22T15:40:37.404Z,21.70
2023-04-22T15:43:09.116Z,21.70
2023-04-22T15:45:41.225Z,21.80
2023-04-22T15:48:12.945Z,21.70
2023-04-22T15:50:44.768Z,21.90
2023-04-22T15:53:16.522Z,22.00
2023-04-22T15:55:48.740Z,22.10
2023-04-22T15:58:20.636Z,21.90
2023-04-22T16:00:52.566Z,21.90
2023-04-22T16:03:24.571Z,21.90
2023-04-22T16:05:56.493Z,22.00
2023-04-22T16:08:28.238Z,22.00
2023-04-22T16:10:59.958Z,22.10
2023-04-22T16:13:31.825Z,22.00
2023-04-22T16:16:03.572Z,22.10
2023-04-22T16:18:35.466Z,22.10
2023-04-22T16:21:07.362Z,22.10
2023-04-22T16:23:39.126Z,22.10
2023-04-22T16:26:10.955Z,22.00
2023-04-22T16:28:42.722Z,21.90
2023-04-22T16:31:14.598Z,21.70
2023-04-22T16:33:46.338Z,21.70
2023-04-22T16:36:18.135Z,21.50
2023-04-22T16:38:49.851Z,21.50
2023-04-22T16:41:21.691Z,21.40
2023-04-22T16:43:53.429Z,21.20
2023-04-22T16:46:25.210Z,21.20
2023-04-22T16:48:56.935Z,21.10
2023-04-22T16:51:28.654Z,21.00
2023-04-22T16:54:00.457Z,20.90
2023-04-22T16:56:32.206Z,20.80
2023-04-22T16:59:03.927Z,20.80
2023-04-22T17:01:36.150Z,20.70
2023-04-22T17:04:08.818Z,20.60
2023-04-22T17:06:41.005Z,20.50
2023-04-22T17:09:12.830Z,20.40
2023-04-22T17:11:44.781Z,20.30
2023-04-22T17:14:16.514Z,20.20
2023-04-22T17:16:48.264Z,20.10
2023-04-22T17:19:19.989Z,20.10
2023-04-22T17:21:51.752Z,20.00
2023-04-22T17:24:24.829Z,19.90
2023-04-22T17:26:56.665Z,19.90
2023-04-22T17:29:28.468Z,19.80
2023-04-22T17:32:00.407Z,19.70
2023-04-22T17:34:32.083Z,19.70
2023-04-22T17:37:03.861Z,19.50
2023-04-22T17:39:35.836Z,19.50
2023-04-22T17:42:07.934Z,20.50
2023-04-22T17:44:39.867Z,19.40
2023-04-22T17:47:11.755Z,19.30
2023-04-22T17:49:43.773Z,19.30
2023-04-22T17:52:15.930Z,19.20
2023-04-22T17:54:47.658Z,19.10
2023-04-22T17:57:19.400Z,19.00
2023-04-22T17:59:51.219Z,19.00
2023-04-22T18:02:23.429Z,18.90
2023-04-22T18:04:55.330Z,18.80
2023-04-22T18:07:27.056Z,18.60
2023-04-22T18:09:58.777Z,18.60
2023-04-22T18:12:30.849Z,18.50
2023-04-22T18:15:02.827Z,18.40
2023-04-22T18:17:34.709Z,18.30
2023-04-22T18:20:17.379Z,18.20
2023-04-22T18:22:53.545Z,18.10
2023-04-22T18:25:25.922Z,18.10
2023-04-22T18:27:57.740Z,18.00
2023-04-22T18:30:30.829Z,17.90
2023-04-22T18:33:04.688Z,17.80
2023-04-22T18:35:36.605Z,17.70
2023-04-22T18:38:08.304Z,17.60
2023-04-22T18:40:40.956Z,17.50
2023-04-22T18:43:12.656Z,17.40
2023-04-22T18:45:44.501Z,17.40
2023-04-22T18:48:18.556Z,17.30
2023-04-22T18:50:50.548Z,17.20
2023-04-22T18:53:22.401Z,17.10
2023-04-22T18:55:54.122Z,17.00
2023-04-22T18:58:25.871Z,16.90
2023-04-22T19:00:57.794Z,16.80
2023-04-22T19:03:29.728Z,16.80
2023-04-22T19:06:01.636Z,16.70
2023-04-22T19:08:33.955Z,16.60
2023-04-22T19:11:05.917Z,16.60
2023-04-22T19:13:37.686Z,16.50
2023-04-22T19:16:09.529Z,16.50
2023-04-22T19:18:42.919Z,16.40
2023-04-22T19:21:16.329Z,16.40
2023-04-22T19:23:48.646Z,16.40
2023-04-22T19:26:21.021Z,16.30
2023-04-22T19:28:52.748Z,16.20
2023-04-22T19:31:25.096Z,16.30
2023-04-22T19:33:57.102Z,16.20
2023-04-22T19:36:29.095Z,16.20
2023-04-22T19:39:00.802Z,16.10
2023-04-22T19:41:34.032Z,16.00
2023-04-22T19:44:06.262Z,16.00
2023-04-22T19:46:38.339Z,15.90
2023-04-22T19:49:10.404Z,15.90
2023-04-22T19:51:42.313Z,15.90
2023-04-22T19:54:14.950Z,15.90
2023-04-22T19:56:48.965Z,15.90
2023-04-22T19:59:20.748Z,15.90
2023-04-22T20:01:52.754Z,15.90
2023-04-22T20:04:24.769Z,15.90
2023-04-22T20:06:57.722Z,15.80
2023-04-22T20:09:32.983Z,15.80
2023-04-22T20:12:05.183Z,15.80
2023-04-22T20:14:37.889Z,15.70
2023-04-22T20:17:09.831Z,15.70
2023-04-22T20:19:41.908Z,15.70
2023-04-22T20:22:16.863Z,15.60
2023-04-22T20:25:01.963Z,15.60
2023-04-22T20:27:34.942Z,15.50
2023-04-22T20:30:07.681Z,15.50
2023-04-22T20:32:39.616Z,15.50
2023-04-22T20:35:14.845Z,15.50
2023-04-22T20:37:48.199Z,15.50
2023-04-22T20:40:23.246Z,15.40
2023-04-22T20:42:57.656Z,13.80
2023-04-22T20:45:29.491Z,15.40
2023-04-22T20:48:01.369Z,15.40
2023-04-22T20:50:33.751Z,15.40
2023-04-22T20:53:05.710Z,15.40
2023-04-22T20:55:37.755Z,15.30
2023-04-22T20:58:09.741Z,15.30
2023-04-22T21:00:42.172Z,15.30
2023-04-22T21:03:15.667Z,15.30
2023-04-22T21:05:47.749Z,15.30
2023-04-22T21:08:24.529Z,15.30
2023-04-22T21:10:57.018Z,15.30
2023-04-22T21:13:28.993Z,15.30
2023-04-22T21:16:10.450Z,15.20
2023-04-22T21:18:44.676Z,15.20
2023-04-22T21:21:18.525Z,15.20
2023-04-22T21:23:51.737Z,15.30
2023-04-22T21:26:23.972Z,15.30
2023-04-22T21:28:56.550Z,15.30
2023-04-22T21:31:28.355Z,15.30
2023-04-22T21:34:04.384Z,15.30
2023-04-22T21:36:36.136Z,15.30
2023-04-22T21:39:08.415Z,15.30
2023-04-22T21:41:40.603Z,15.30
2023-04-22T21:44:12.384Z,15.30
2023-04-22T21:46:45.385Z,15.30
2023-04-22T21:49:17.225Z,15.30
2023-04-22T21:51:48.958Z,15.20
2023-04-22T21:54:20.709Z,15.20
2023-04-22T21:56:52.530Z,15.20
2023-04-22T21:59:24.765Z,15.10
2023-04-22T22:01:56.549Z,15.10
2023-04-22T22:04:28.564Z,15.10
2023-04-22T22:07:00.799Z,15.10
2023-04-22T22:09:32.950Z,15.10
2023-04-22T22:12:04.922Z,15.10
2023-04-22T22:14:38.129Z,15.10
2023-04-22T22:17:10.135Z,15.10
2023-04-22T22:19:41.973Z,15.70
2023-04-22T22:22:13.711Z,15.00
2023-04-22T22:24:45.658Z,15.00
2023-04-22T22:27:17.376Z,15.00
2023-04-22T22:29:49.127Z,15.00
2023-04-22T22:32:21.111Z,14.90
2023-04-22T22:34:52.813Z,14.90
2023-04-22T22:37:24.748Z,14.80
2023-04-22T22:39:56.520Z,14.80
2023-04-22T22:42:28.244Z,14.80
2023-04-22T22:45:00.185Z,14.80
2023-04-22T22:47:31.998Z,14.80
2023-04-22T22:50:04.089Z,14.80
2023-04-22T22:52:35.998Z,14.80
2023-04-22T22:55:08.287Z,14.80
2023-04-22T22:57:39.988Z,14.70
2023-04-22T23:00:12.694Z,14.70
2023-04-22T23:02:44.618Z,14.70
2023-04-22T23:05:16.531Z,14.70
2023-04-22T23:07:48.353Z,14.70
2023-04-22T23:10:20.808Z,14.70
2023-04-22T23:12:52.598Z,14.60
2023-04-22T23:15:24.325Z,14.60
2023-04-22T23:17:56.143Z,14.60
2023-04-22T23:20:28.046Z,14.60
2023-04-22T23:23:00.516Z,14.60
2023-04-22T23:25:32.529Z,14.50
2023-04-22T23:28:04.541Z,14.50
2023-04-22T23:30:36.593Z,14.50
2023-04-22T23:33:12.348Z,14.40
2023-04-22T23:35:45.804Z,14.40
2023-04-22T23:38:17.543Z,14.40
2023-04-22T23:40:49.295Z,14.30
2023-04-22T23:43:21.001Z,14.30
2023-04-22T23:45:52.842Z,14.30
2023-04-22T23:48:24.645Z,14.30
2023-04-22T23:50:56.412Z,14.20
2023-04-22T23:53:28.166Z,14.20
2023-04-22T23:56:00.497Z,14.30
2023-04-22T23:58:32.412Z,14.20
